Time;durP1;ratioP1;P1;durP2;ratioP2;P2;SDS_P1;SDS_P2;PMS_P1;PMS_P2;Temp;Humidity;BMP_temperature;BMP_pressure;BME280_temperature;BME280_humidity;BME280_pressure;Samples;Min_cycle;Max_cycle;Signal;HPM_P1;HPM_P2
2021/11/03 00:01:17;;;;;;;300.75;42.97;;;;;;;4.13;81.82;100198.94;5072596;28;20414;-84
2021/11/03 00:03:48;;;;;;;314.10;42.00;;;;;;;4.04;82.26;100189.63;5074459;28;20071;-84
2021/11/03 00:06:19;;;;;;;300.60;39.60;;;;;;;4.09;82.03;100203.22;5074331;28;20067;-84
2021/11/03 00:08:46;;;;;;;229.32;40.38;;;;;;;4.18;82.04;100201.75;5057692;28;20047;-83
2021/11/03 00:11:15;;;;;;;246.93;37.90;;;;;;;4.03;81.68;100180.69;5074354;28;20139;-84
2021/11/03 00:13:41;;;;;;;255.45;39.35;;;;;;;4.06;81.92;100188.31;5074338;28;20082;-84
2021/11/03 00:16:08;;;;;;;299.00;40.58;;;;;;;4.06;82.15;100190.19;5082813;28;20043;-86
2021/11/03 00:18:34;;;;;;;210.45;39.67;;;;;;;4.11;81.82;100172.16;5081916;28;20044;-84
2021/11/03 00:21:04;;;;;;;263.13;40.08;;;;;;;4.20;81.83;100188.75;5056395;28;20413;-84
2021/11/03 00:23:30;;;;;;;227.00;37.90;;;;;;;4.21;81.99;100174.19;5037578;28;20102;-84
2021/11/03 00:25:58;;;;;;;;;;;;;;;4.30;81.47;100183.50;5056692;28;20037;-84
2021/11/03 00:28:24;;;;;;;219.60;35.38;;;;;;;4.04;81.78;100163.41;5074714;28;20419;-85
2021/11/03 00:30:54;;;;;;;224.65;36.75;;;;;;;4.13;81.87;100172.69;5075059;28;20090;-84
2021/11/03 00:33:23;;;;;;;229.88;36.50;;;;;;;4.26;81.77;100190.47;5072154;28;20047;-83
2021/11/03 00:35:51;;;;;;;223.68;37.47;;;;;;;4.32;81.66;100185.97;5072092;28;20043;-83
2021/11/03 00:38:17;;;;;;;;;;;;;;;4.28;81.77;100184.84;5039680;28;20041;-84
2021/11/03 00:40:47;;;;;;;214.10;37.00;;;;;;;4.38;81.81;100187.66;5088902;28;20022;-86
2021/11/03 00:43:14;;;;;;;255.63;38.97;;;;;;;4.44;81.42;100192.91;5038687;28;20508;-84
2021/11/03 00:45:42;;;;;;;247.77;39.60;;;;;;;4.22;81.29;100157.69;5039469;28;20046;-84
2021/11/03 00:48:08;;;;;;;194.38;38.38;;;;;;;4.44;81.54;100192.91;5073631;28;20403;-84
2021/11/03 00:50:38;;;;;;;285.77;37.50;;;;;;;4.22;81.13;100143.34;5073433;28;20118;-85
2021/11/03 00:53:05;;;;;;;259.27;41.10;;;;;;;4.45;81.31;100178.28;5073406;28;20098;-84
2021/11/03 00:55:32;;;;;;;280.77;41.28;;;;;;;4.45;81.57;100175.56;5056576;28;20037;-84
2021/11/03 00:57:59;;;;;;;;;;;;;;;4.41;81.53;100179.88;5073471;28;20041;-84
2021/11/03 01:00:26;;;;;;;;;;;;;;;4.36;81.97;100182.50;5072003;28;19927;-86
2021/11/03 01:02:52;;;;;;;286.50;38.17;;;;;;;4.27;81.68;100156.91;5038985;28;19920;-84
2021/11/03 01:05:23;;;;;;;285.33;37.50;;;;;;;4.44;81.95;100179.38;5074207;28;20036;-84
2021/11/03 01:07:49;;;;;;;284.77;41.17;;;;;;;4.53;81.63;100179.72;5073075;28;20036;-84
2021/11/03 01:10:17;;;;;;;313.33;39.38;;;;;;;4.52;81.43;100178.09;5038823;28;20040;-84
2021/11/03 01:12:45;;;;;;;280.83;38.38;;;;;;;4.44;81.91;100178.56;5072736;28;20044;-84
2021/11/03 01:15:18;;;;;;;288.60;39.00;;;;;;;4.52;81.88;100177.28;5054889;28;20043;-83
2021/11/03 01:17:44;;;;;;;242.23;37.67;;;;;;;4.54;81.64;100177.88;5071479;28;20123;-84
2021/11/03 01:20:17;;;;;;;359.55;42.88;;;;;;;4.53;81.41;100173.50;5038260;28;20153;-84
2021/11/03 01:22:43;;;;;;;318.90;39.13;;;;;;;4.48;81.49;100158.84;5055185;28;20063;-83
2021/11/03 01:25:12;;;;;;;373.37;40.77;;;;;;;4.51;81.70;100172.94;5038637;28;20040;-84
2021/11/03 01:27:40;;;;;;;269.88;40.95;;;;;;;4.33;81.52;100134.28;5055593;28;20060;-85
2021/11/03 01:30:15;;;;;;;322.95;39.33;;;;;;;4.59;81.38;100170.59;5070905;28;20032;-84
2021/11/03 01:32:42;;;;;;;326.35;39.75;;;;;;;4.54;81.51;100170.56;5035086;28;20037;-83
2021/11/03 01:35:09;;;;;;;258.77;36.58;;;;;;;4.46;81.92;100149.31;5030207;28;20040;-84
2021/11/03 01:37:36;;;;;;;231.13;39.08;;;;;;;4.70;81.70;100163.41;5073375;28;20094;-85
2021/11/03 01:40:07;;;;;;;306.27;38.05;;;;;;;4.75;81.07;100160.78;5036810;28;20509;-83
2021/11/03 01:42:37;;;;;;;315.88;39.03;;;;;;;4.59;81.40;100153.53;5053268;28;20048;-84
2021/11/03 01:45:07;;;;;;;239.00;36.67;;;;;;;4.53;82.00;100152.66;5055727;28;20032;-84
2021/11/03 01:47:34;;;;;;;293.33;40.88;;;;;;;4.53;82.17;100151.84;5072225;28;20087;-84
2021/11/03 01:50:01;;;;;;;252.15;39.58;;;;;;;4.40;82.52;100128.66;5070915;28;20418;-84
2021/11/03 01:52:32;;;;;;;262.80;36.88;;;;;;;4.59;82.40;100154.34;5070819;28;20387;-84
2021/11/03 01:54:59;;;;;;;299.05;38.28;;;;;;;4.51;82.23;100135.84;5070855;28;20093;-85
2021/11/03 01:57:33;;;;;;;259.73;37.88;;;;;;;4.32;82.46;100111.00;5037847;28;20097;-83
2021/11/03 02:00:08;;;;;;;325.67;37.63;;;;;;;4.52;82.57;100147.50;5070085;28;20048;-84
2021/11/03 02:02:42;;;;;;;305.80;37.35;;;;;;;4.55;82.48;100136.16;5071208;28;20139;-84
2021/11/03 02:05:15;;;;;;;212.50;38.38;;;;;;;4.58;82.65;100131.06;5071240;28;20516;-85
2021/11/03 02:07:43;;;;;;;308.05;41.65;;;;;;;4.76;82.00;100137.22;5053905;28;20044;-84
2021/11/03 02:10:11;;;;;;;260.58;38.63;;;;;;;4.74;81.70;100140.19;5071539;28;20036;-84
2021/11/03 02:12:40;;;;;;;253.52;37.80;;;;;;;4.64;81.80;100107.56;5071756;28;20036;-85
2021/11/03 02:15:09;;;;;;;309.38;40.08;;;;;;;4.72;82.49;100137.72;5071048;28;20035;-83
2021/11/03 02:17:36;;;;;;;275.98;38.47;;;;;;;4.58;82.37;100108.59;5055414;28;20081;-84
2021/11/03 02:20:08;;;;;;;238.15;37.97;;;;;;;4.63;82.49;100114.03;5072429;28;20040;-84
2021/11/03 02:22:46;;;;;;;227.68;38.25;;;;;;;4.66;82.63;100121.66;5071787;28;20056;-84
2021/11/03 02:25:31;;;;;;;335.50;41.65;;;;;;;4.72;82.34;100126.06;5051187;28;20049;-83
2021/11/03 02:28:01;;;;;;;309.73;40.65;;;;;;;4.76;82.58;100129.09;5050675;28;20045;-84
2021/11/03 02:30:27;;;;;;;360.35;41.20;;;;;;;4.64;82.35;100102.97;5038997;28;20135;-84
2021/11/03 02:33:01;;;;;;;299.63;40.07;;;;;;;4.64;82.67;100113.81;5060729;28;20040;-83
2021/11/03 02:35:28;;;;;;;249.35;39.85;;;;;;;4.67;82.86;100112.50;5052365;28;20290;-83
2021/11/03 02:37:57;;;;;;;285.13;39.17;;;;;;;4.70;82.57;100112.78;5052465;28;20051;-82
2021/11/03 02:40:37;;;;;;;253.90;44.05;;;;;;;4.78;82.96;100127.75;5053108;28;20129;-86
2021/11/03 02:43:38;;;;;;;288.23;40.38;;;;;;;4.70;83.03;100111.94;5040251;28;20048;-83
2021/11/03 02:46:11;;;;;;;281.05;41.40;;;;;;;4.73;82.61;100111.44;5072044;28;20036;-83
2021/11/03 02:48:40;;;;;;;311.05;41.38;;;;;;;4.72;82.80;100118.75;5039761;28;20045;-84
2021/11/03 02:51:17;;;;;;;341.35;43.38;;;;;;;4.72;82.80;100102.50;5021148;28;20041;-83
2021/11/03 02:53:47;;;;;;;;;;;;;;;4.83;82.72;100116.97;5054031;28;20110;-83
2021/11/03 02:56:16;;;;;;;257.75;35.35;;;;;;;4.72;83.01;100116.03;5057270;28;20025;-84
2021/11/03 02:58:43;;;;;;;332.20;41.35;;;;;;;4.77;83.17;100111.75;5072324;28;20070;-83
2021/11/03 03:01:18;;;;;;;294.98;38.10;;;;;;;4.67;82.88;100080.00;5072346;28;20052;-83
2021/11/03 03:03:47;;;;;;;281.00;40.45;;;;;;;4.91;82.70;100119.22;5056801;28;20501;-84
2021/11/03 03:06:22;;;;;;;318.73;41.83;;;;;;;4.87;82.67;100104.56;5040323;28;20052;-83
2021/11/03 03:08:51;;;;;;;360.25;41.00;;;;;;;5.03;82.23;100115.53;5040444;28;20041;-84
2021/11/03 03:11:18;;;;;;;376.90;43.65;;;;;;;4.87;82.28;100084.78;5056136;28;20044;-83
2021/11/03 03:13:44;;;;;;;337.13;40.60;;;;;;;4.95;82.42;100114.94;5070194;28;20141;-83
2021/11/03 03:16:11;;;;;;;313.80;40.55;;;;;;;4.79;82.71;100082.53;5056913;28;20059;-83
2021/11/03 03:18:38;;;;;;;347.33;43.05;;;;;;;4.93;82.65;100117.09;5040617;28;20048;-83
2021/11/03 03:21:04;;;;;;;353.60;44.08;;;;;;;4.78;82.98;100097.16;5037342;28;20072;-83
2021/11/03 03:23:30;;;;;;;238.95;41.17;;;;;;;4.78;83.02;100075.50;5056781;28;20533;-83
2021/11/03 03:25:58;;;;;;;470.73;43.25;;;;;;;4.99;82.77;100092.75;5075950;28;20124;-84
2021/11/03 03:28:26;;;;;;;314.25;41.47;;;;;;;4.97;82.73;100093.00;5058177;28;20049;-85
2021/11/03 03:30:52;;;;;;;;;;;;;;;4.95;82.91;100087.03;5075620;28;20070;-85
2021/11/03 03:33:20;;;;;;;329.55;42.55;;;;;;;4.89;83.14;100090.75;5073172;28;20011;-84
2021/11/03 03:35:46;;;;;;;388.98;44.42;;;;;;;4.75;83.25;100059.75;5074478;28;20055;-84
2021/11/03 03:38:13;;;;;;;333.58;42.92;;;;;;;4.93;83.21;100087.28;5074455;28;20066;-86
2021/11/03 03:40:40;;;;;;;359.70;45.03;;;;;;;4.77;82.88;100049.44;5073875;28;20047;-83
2021/11/03 03:43:07;;;;;;;297.98;40.90;;;;;;;4.81;83.10;100054.13;5056477;28;20441;-84
2021/11/03 03:45:33;;;;;;;263.30;45.25;;;;;;;4.89;83.18;100061.75;5073087;28;20037;-83
2021/11/03 03:47:59;;;;;;;285.35;44.20;;;;;;;5.06;82.89;100082.50;5074034;28;20127;-84
2021/11/03 03:50:26;;;;;;;337.40;47.40;;;;;;;5.02;83.11;100078.69;5073609;28;20506;-84
2021/11/03 03:52:52;;;;;;;334.33;45.17;;;;;;;4.93;83.22;100068.31;5040761;28;20040;-83
2021/11/03 03:55:19;;;;;;;332.70;49.92;;;;;;;4.98;83.21;100053.19;5058284;28;20068;-84
2021/11/03 03:57:47;;;;;;;312.80;48.78;;;;;;;5.18;82.82;100085.88;5074367;28;20052;-83
2021/11/03 04:00:19;;;;;;;301.75;45.28;;;;;;;5.02;82.60;100048.88;5056825;28;20045;-83
2021/11/03 04:02:52;;;;;;;;;;;;;;;5.12;82.88;100081.47;5059122;28;20041;-83
2021/11/03 04:05:21;;;;;;;258.15;44.65;;;;;;;5.02;83.07;100059.72;5099127;28;20385;-84
2021/11/03 04:07:48;;;;;;;247.82;44.55;;;;;;;5.12;83.12;100078.78;5048810;28;20036;-85
2021/11/03 04:10:17;;;;;;;306.98;44.83;;;;;;;5.11;83.14;100074.44;5039483;28;20082;-84
2021/11/03 04:12:44;;;;;;;264.60;46.17;;;;;;;5.13;82.75;100062.25;5072255;28;20468;-83
2021/11/03 04:15:13;;;;;;;282.98;44.80;;;;;;;5.05;82.72;100054.59;5055884;28;20048;-84
2021/11/03 04:17:40;;;;;;;302.38;48.22;;;;;;;5.14;82.79;100066.59;5072484;28;20060;-83
2021/11/03 04:20:10;;;;;;;292.85;48.45;;;;;;;4.96;82.84;100042.59;5055532;28;20044;-86
2021/11/03 04:22:37;;;;;;;245.50;45.47;;;;;;;5.28;82.65;100087.84;5072166;28;20043;-86
2021/11/03 04:25:06;;;;;;;237.82;45.03;;;;;;;5.33;82.47;100090.59;5073327;28;20046;-88
2021/11/03 04:27:33;;;;;;;241.77;50.05;;;;;;;5.31;82.67;100099.00;5039150;28;20048;-87
2021/11/03 04:30:00;;;;;;;232.80;45.97;;;;;;;5.34;82.51;100093.06;5055194;28;20405;-90
2021/11/03 04:32:26;;;;;;;238.02;50.85;;;;;;;5.36;82.57;100093.63;5055993;28;20123;-86
2021/11/03 04:34:54;;;;;;;229.32;49.78;;;;;;;5.34;82.34;100084.91;5073686;28;20473;-87
2021/11/03 04:37:22;;;;;;;234.65;49.03;;;;;;;5.36;82.13;100082.78;5074088;28;20047;-88
2021/11/03 04:39:50;;;;;;;230.05;48.13;;;;;;;5.25;82.36;100070.19;5073403;28;20052;-88
2021/11/03 04:42:17;;;;;;;230.52;51.85;;;;;;;5.45;82.20;100085.00;5038855;28;20039;-88
2021/11/03 04:44:43;;;;;;;;;;;;;;;5.57;81.58;100104.63;5072054;28;20123;-85
2021/11/03 04:47:10;;;;;;;;;;;;;;;5.57;81.70;100112.75;5054611;28;19928;-86
2021/11/03 04:49:40;;;;;;;197.77;47.05;;;;;;;5.59;81.52;100105.16;5071095;28;19920;-85
2021/11/03 04:52:07;;;;;;;193.50;46.28;;;;;;;5.33;81.44;100061.59;5072841;28;20086;-86
2021/11/03 04:54:35;;;;;;;186.30;46.88;;;;;;;5.49;81.77;100091.53;5054798;28;20182;-87
2021/11/03 04:57:02;;;;;;;186.98;49.78;;;;;;;5.59;81.38;100102.44;5071416;28;20410;-86
2021/11/03 04:59:30;;;;;;;200.63;48.90;;;;;;;5.54;81.27;100081.53;5038068;28;20509;-85
2021/11/03 05:01:59;;;;;;;198.32;50.40;;;;;;;5.66;81.20;100105.75;5070696;28;20040;-83
2021/11/03 05:04:28;;;;;;;203.70;49.47;;;;;;;5.44;81.34;100084.19;5037551;28;20078;-83
2021/11/03 05:06:54;;;;;;;219.60;52.22;;;;;;;5.52;81.63;100091.81;5051190;28;20049;-82
2021/11/03 05:09:20;;;;;;;180.27;47.38;;;;;;;5.51;81.35;100075.81;5069480;28;20591;-83
2021/11/03 05:11:49;;;;;;;186.20;45.85;;;;;;;5.57;81.23;100091.06;5068101;28;20135;-83
2021/11/03 05:14:16;;;;;;;192.25;47.33;;;;;;;5.51;81.29;100089.38;5091485;28;20109;-83
2021/11/03 05:16:47;;;;;;;202.40;51.08;;;;;;;5.59;81.66;100105.16;5042147;28;20113;-84
2021/11/03 05:19:25;;;;;;;212.82;51.60;;;;;;;5.59;81.75;100105.97;5073501;28;20036;-85
2021/11/03 05:21:59;;;;;;;216.52;52.35;;;;;;;5.51;81.37;100084.78;5067627;28;20575;-85
2021/11/03 05:24:27;;;;;;;200.23;51.92;;;;;;;5.60;81.31;100107.63;5041931;28;20039;-84
2021/11/03 05:26:54;;;;;;;196.73;49.45;;;;;;;5.61;81.43;100105.72;5040842;28;20075;-74
2021/11/03 05:29:21;;;;;;;;;;;;;;;5.69;81.20;100105.22;5095772;28;20044;-73
2021/11/03 05:31:47;;;;;;;172.57;47.17;;;;;;;5.68;81.07;100100.06;5097546;28;20470;-73
2021/11/03 05:34:14;;;;;;;191.65;50.28;;;;;;;5.74;80.91;100118.03;5098365;28;20078;-74
2021/11/03 05:36:40;;;;;;;197.15;53.28;;;;;;;5.78;80.96;100116.41;5100657;28;20051;-74
2021/11/03 05:39:12;;;;;;;183.00;47.50;;;;;;;5.74;80.73;100120.72;5097343;28;20071;-74
2021/11/03 05:41:39;;;;;;;188.18;50.50;;;;;;;5.78;80.84;100122.66;5089395;28;20097;-73
2021/11/03 05:44:07;;;;;;;189.70;50.08;;;;;;;5.74;80.87;100116.13;5089833;28;20036;-76
2021/11/03 05:46:37;;;;;;;185.90;51.50;;;;;;;5.75;80.85;100117.75;5082085;28;20041;-73
2021/11/03 05:49:09;;;;;;;194.93;52.60;;;;;;;5.70;81.12;100122.34;5070793;28;20094;-74
2021/11/03 05:51:40;;;;;;;192.07;50.75;;;;;;;5.69;81.35;100129.63;5071015;28;20033;-76
2021/11/03 05:54:06;;;;;;;194.65;52.30;;;;;;;5.70;81.35;100122.34;5071181;28;20062;-77
2021/11/03 05:56:35;;;;;;;170.85;46.75;;;;;;;5.68;81.28;100114.44;5069596;28;20032;-82
2021/11/03 05:59:02;;;;;;;161.85;43.15;;;;;;;5.77;80.85;100118.31;5070087;28;20048;-75
2021/11/03 06:01:29;;;;;;;188.70;51.22;;;;;;;5.74;80.86;100105.28;5070176;28;20037;-74
2021/11/03 06:03:55;;;;;;;184.57;48.13;;;;;;;5.89;80.47;100121.66;5071574;28;20043;-73
2021/11/03 06:06:22;;;;;;;183.00;49.58;;;;;;;5.88;80.40;100111.88;5071343;28;20059;-71
2021/11/03 06:08:49;;;;;;;191.70;49.95;;;;;;;5.88;80.48;100120.00;5071643;28;20051;-71
2021/11/03 06:11:18;;;;;;;182.75;49.20;;;;;;;5.87;80.49;100118.38;5071850;28;20043;-72
2021/11/03 06:13:45;;;;;;;184.50;49.38;;;;;;;6.01;80.14;100105.19;5070934;28;20132;-75
2021/11/03 06:16:13;;;;;;;186.63;48.50;;;;;;;5.92;80.26;100093.16;5074940;28;20562;-76
2021/11/03 06:18:39;;;;;;;183.45;49.42;;;;;;;6.08;79.96;100118.53;5075314;28;20045;-76
2021/11/03 06:21:06;;;;;;;174.15;46.92;;;;;;;6.00;80.22;100108.19;5074050;28;20058;-75
2021/11/03 06:23:32;;;;;;;179.90;47.88;;;;;;;5.98;80.32;100105.72;5074626;28;20501;-73
2021/11/03 06:25:59;;;;;;;186.40;49.67;;;;;;;5.95;80.14;100100.81;5075587;28;20037;-83
2021/11/03 06:28:25;;;;;;;174.13;49.27;;;;;;;6.09;79.87;100107.41;5075750;28;20417;-74
2021/11/03 06:30:52;;;;;;;183.95;49.80;;;;;;;6.11;79.93;100110.66;5073954;28;20110;-73
2021/11/03 06:33:18;;;;;;;170.03;49.77;;;;;;;6.24;79.67;100101.22;5074347;28;20024;-73
2021/11/03 06:35:45;;;;;;;187.60;50.25;;;;;;;6.20;79.48;100108.28;5074673;28;20139;-69
2021/11/03 06:38:14;;;;;;;191.50;52.22;;;;;;;6.13;79.63;100110.41;5074765;28;20044;-71
2021/11/03 06:40:43;;;;;;;180.35;51.92;;;;;;;6.09;79.65;100112.00;5074565;28;20094;-74
2021/11/03 06:43:08;;;;;;;;;;;;;;;6.09;79.95;100098.44;5075094;28;20041;-74
2021/11/03 06:45:35;;;;;;;178.07;49.50;;;;;;;6.18;79.55;100106.91;5072077;28;19927;-86
2021/11/03 06:48:02;;;;;;;176.90;51.83;;;;;;;6.26;79.48;100100.97;5073881;28;20425;-70
2021/11/03 06:50:35;;;;;;;189.48;52.33;;;;;;;6.23;79.46;100099.59;5073789;28;20119;-73
2021/11/03 06:53:04;;;;;;;178.00;50.25;;;;;;;6.35;79.10;100102.88;5073550;28;20508;-72
2021/11/03 06:55:31;;;;;;;182.52;51.95;;;;;;;6.32;78.97;100095.31;5075373;28;20040;-72
2021/11/03 06:57:58;;;;;;;168.50;49.22;;;;;;;6.24;79.06;100095.00;5072694;28;20047;-76
2021/11/03 07:00:29;;;;;;;186.05;54.53;;;;;;;6.29;78.90;100098.53;5073949;28;20040;-70
2021/11/03 07:02:58;;;;;;;178.57;51.45;;;;;;;6.31;78.95;100088.22;5073762;28;20056;-70
2021/11/03 07:05:24;;;;;;;191.98;52.28;;;;;;;6.46;78.88;100097.53;5074180;28;20075;-71
2021/11/03 07:07:51;;;;;;;190.55;54.90;;;;;;;6.55;78.09;100087.75;5074519;28;20043;-83
2021/11/03 07:10:28;;;;;;;179.43;52.20;;;;;;;6.61;78.07;100088.59;5064235;28;20578;-78
2021/11/03 07:12:54;;;;;;;;;;;;;;;6.60;77.87;100090.50;5070641;28;20044;-72
2021/11/03 07:15:21;;;;;;;173.10;49.27;;;;;;;6.55;77.91;100091.28;5073900;28;19927;-71
2021/11/03 07:17:48;;;;;;;183.52;55.72;;;;;;;6.54;77.93;100086.94;5074108;28;20055;-83
2021/11/03 07:20:16;;;;;;;171.73;52.58;;;;;;;6.46;78.11;100079.31;5074164;28;20071;-76
2021/11/03 07:22:42;;;;;;;190.13;56.33;;;;;;;6.43;78.29;100077.13;5074296;28;20044;-73
2021/11/03 07:25:10;;;;;;;187.10;54.38;;;;;;;6.54;78.25;100092.38;5073658;28;20044;-72
2021/11/03 07:27:36;;;;;;;180.95;53.60;;;;;;;6.55;77.92;100094.00;5073206;28;20068;-73
2021/11/03 07:30:05;;;;;;;190.48;57.38;;;;;;;6.52;78.32;100077.41;5074918;28;20142;-78
2021/11/03 07:32:32;;;;;;;173.65;52.75;;;;;;;6.47;78.39;100075.50;5074462;28;20041;-74
2021/11/03 07:34:58;;;;;;;185.50;57.50;;;;;;;6.61;78.33;100081.25;5074044;28;20528;-74
2021/11/03 07:37:24;;;;;;;196.05;56.65;;;;;;;6.56;78.10;100090.22;5073943;28;20043;-71
2021/11/03 07:39:50;;;;;;;191.75;54.35;;;;;;;6.60;78.25;100079.63;5074540;28;20045;-70
2021/11/03 07:42:16;;;;;;;185.15;54.97;;;;;;;6.58;78.15;100082.59;5074155;28;20044;-71
2021/11/03 07:44:48;;;;;;;189.02;52.55;;;;;;;6.66;78.05;100089.44;5073377;28;20037;-72
2021/11/03 07:47:15;;;;;;;182.32;52.42;;;;;;;6.67;77.68;100093.78;5074255;28;20040;-73
2021/11/03 07:49:41;;;;;;;189.90;57.55;;;;;;;6.64;77.87;100074.47;5073053;28;20413;-79
2021/11/03 07:52:08;;;;;;;198.15;57.45;;;;;;;6.78;77.60;100072.88;5073556;28;20060;-71
2021/11/03 07:54:34;;;;;;;182.25;59.22;;;;;;;6.78;77.53;100064.72;5076322;28;20569;-73
2021/11/03 07:57:02;;;;;;;169.80;52.47;;;;;;;6.80;77.25;100066.09;5074149;28;20070;-73
2021/11/03 07:59:28;;;;;;;162.52;50.42;;;;;;;6.88;77.27;100072.06;5075304;28;20059;-80
2021/11/03 08:01:55;;;;;;;173.60;52.42;;;;;;;6.88;77.20;100063.91;5075549;28;20045;-72
2021/11/03 08:04:21;;;;;;;187.32;56.05;;;;;;;6.79;77.21;100052.78;5073077;28;20040;-76
2021/11/03 08:06:48;;;;;;;169.55;54.30;;;;;;;6.92;76.87;100070.44;5070811;28;20048;-75
2021/11/03 08:09:15;;;;;;;173.43;53.35;;;;;;;6.95;76.98;100070.72;5067256;28;20032;-74
2021/11/03 08:11:56;;;;;;;163.43;52.90;;;;;;;6.87;76.84;100059.56;5070500;28;20036;-76
2021/11/03 08:14:25;;;;;;;164.75;51.08;;;;;;;6.96;76.85;100066.13;5071011;28;20111;-73
2021/11/03 08:16:54;;;;;;;159.23;53.75;;;;;;;6.95;76.58;100064.47;5072407;28;20032;-74
2021/11/03 08:19:28;;;;;;;197.65;56.70;;;;;;;7.00;76.56;100072.63;5071361;28;20079;-81
2021/11/03 08:21:55;;;;;;;198.10;59.08;;;;;;;6.97;76.55;100073.97;5069291;28;20133;-81
2021/11/03 08:24:21;;;;;;;174.68;56.05;;;;;;;6.97;76.49;100075.88;5070323;28;20044;-75
2021/11/03 08:26:52;;;;;;;193.90;57.35;;;;;;;7.04;76.51;100082.69;5070226;28;20057;-80
2021/11/03 08:29:20;;;;;;;179.40;53.35;;;;;;;7.10;75.92;100077.25;5070174;28;20059;-74
2021/11/03 08:31:46;;;;;;;;;;;;;;;7.12;75.90;100084.06;5072550;28;20051;-81
2021/11/03 08:34:13;;;;;;;;;;;;;;;7.15;75.88;100071.81;5073778;28;19920;-82
2021/11/03 08:36:39;;;;;;;;;;;;;;;7.10;76.11;100069.09;5074326;28;19920;-81
2021/11/03 08:39:09;;;;;;;163.07;49.30;;;;;;;6.98;76.28;100075.59;5071830;28;19928;-82
2021/11/03 08:41:36;;;;;;;;;;;;;;;7.02;76.13;100068.56;5074558;28;20041;-82
2021/11/03 08:44:03;;;;;;;;;;;;;;;7.08;76.13;100066.66;5070949;28;19940;-80
2021/11/03 08:46:29;;;;;;;152.50;47.80;;;;;;;7.07;75.90;100057.69;5072071;28;20454;-83
2021/11/03 08:49:02;;;;;;;149.97;48.73;;;;;;;7.04;75.91;100046.53;5072246;28;20453;-83
2021/11/03 08:51:30;;;;;;;157.63;51.33;;;;;;;7.12;75.63;100047.88;5075026;28;20413;-80
2021/11/03 08:53:57;;;;;;;160.23;50.40;;;;;;;7.05;75.85;100048.16;5069464;28;20056;-72
2021/11/03 08:56:24;;;;;;;157.25;49.22;;;;;;;7.20;75.79;100039.19;5065290;28;20102;-72
2021/11/03 08:58:50;;;;;;;172.30;52.53;;;;;;;7.10;75.29;100029.13;5066077;28;20109;-85
2021/11/03 09:01:18;;;;;;;170.23;54.17;;;;;;;7.20;75.51;100033.75;5069733;28;20044;-74
2021/11/03 09:03:44;;;;;;;176.13;55.30;;;;;;;7.20;75.42;100033.75;5066926;28;20041;-77
2021/11/03 09:06:10;;;;;;;167.68;52.53;;;;;;;7.17;75.42;100026.97;5068386;28;20101;-73
2021/11/03 09:08:48;;;;;;;171.45;56.30;;;;;;;7.12;75.51;100028.84;5065362;28;20044;-73
2021/11/03 09:11:16;;;;;;;167.25;55.10;;;;;;;7.14;75.70;100024.78;5066519;28;20098;-76
2021/11/03 09:13:42;;;;;;;157.63;53.00;;;;;;;7.01;75.70;100026.13;5064631;28;20506;-73
2021/11/03 09:16:10;;;;;;;167.55;51.17;;;;;;;7.03;75.99;100017.72;5066935;28;20077;-73
2021/11/03 09:18:36;;;;;;;174.32;55.35;;;;;;;7.00;76.24;100018.28;5064310;28;20036;-74
2021/11/03 09:21:04;;;;;;;;;;;;;;;7.09;76.05;100018.56;5067847;28;20075;-77
2021/11/03 09:23:31;;;;;;;165.55;57.53;;;;;;;7.23;75.89;100017.72;5064044;28;19963;-74
2021/11/03 09:25:59;;;;;;;169.10;54.78;;;;;;;7.20;75.46;100007.38;5067157;28;20052;-75
2021/11/03 09:28:28;;;;;;;194.85;59.35;;;;;;;7.22;75.56;100012.56;5063776;28;20544;-73
2021/11/03 09:30:57;;;;;;;178.25;58.28;;;;;;;7.18;75.69;100001.38;5066743;28;20070;-73
2021/11/03 09:33:24;;;;;;;170.43;56.38;;;;;;;7.32;75.99;99998.09;5063032;28;20086;-72
2021/11/03 09:35:52;;;;;;;;;;;;;;;7.43;75.43;100013.34;5064917;28;20467;-79
2021/11/03 09:38:25;;;;;;;168.45;57.15;;;;;;;7.42;75.13;99995.41;5063018;28;19921;-73
2021/11/03 09:41:36;;;;;;;162.32;54.42;;;;;;;7.40;74.91;100003.81;5068248;28;20036;-72
2021/11/03 09:44:20;;;;;;;162.32;55.50;;;;;;;7.40;74.98;99992.13;5061971;28;20078;-81
2021/11/03 09:46:54;;;;;;;173.32;56.95;;;;;;;7.41;75.05;99993.75;5059439;28;20041;-76
2021/11/03 09:49:31;;;;;;;169.50;58.33;;;;;;;7.39;75.44;100004.09;5061219;28;20127;-73
2021/11/03 09:52:14;;;;;;;165.95;58.33;;;;;;;7.38;75.22;100002.44;5063289;28;20044;-74
2021/11/03 09:54:44;;;;;;;207.63;61.67;;;;;;;7.42;75.28;99995.41;5063429;28;20041;-71
2021/11/03 09:57:22;;;;;;;193.60;64.88;;;;;;;7.56;75.03;100003.78;5062085;28;20032;-71
2021/11/03 10:00:14;;;;;;;209.43;67.28;;;;;;;7.59;74.63;100008.69;5064344;28;20139;-72
2021/11/03 10:02:54;;;;;;;172.55;58.75;;;;;;;7.47;74.66;99984.47;5060923;28;20056;-77
2021/11/03 10:05:39;;;;;;;190.90;60.65;;;;;;;7.59;74.94;99998.59;5064361;28;20046;-73
2021/11/03 10:08:14;;;;;;;188.57;60.00;;;;;;;7.60;75.01;100000.22;5061687;28;20040;-74
2021/11/03 10:10:51;;;;;;;184.82;61.40;;;;;;;7.64;74.90;99997.78;5064340;28;20044;-74
2021/11/03 10:13:36;;;;;;;182.93;62.83;;;;;;;7.62;75.50;100000.78;5061478;28;20093;-75
2021/11/03 10:16:33;;;;;;;203.80;68.55;;;;;;;7.60;75.55;99994.78;5063483;28;20413;-73
2021/11/03 10:19:05;;;;;;;183.95;64.25;;;;;;;7.62;76.36;99997.25;5060828;28;20398;-73
2021/11/03 10:21:38;;;;;;;177.45;61.97;;;;;;;7.63;75.83;99972.47;5063169;28;20106;-78
2021/11/03 10:24:11;;;;;;;188.15;65.70;;;;;;;7.84;75.59;99991.44;5055108;28;20041;-74
2021/11/03 10:26:50;;;;;;;204.38;68.65;;;;;;;7.76;75.70;99990.94;5066752;28;20094;-74
2021/11/03 10:30:03;;;;;;;187.18;68.22;;;;;;;7.81;76.06;99983.81;5071514;28;20048;-74
2021/11/03 10:32:38;;;;;;;172.40;62.13;;;;;;;7.79;76.24;99981.41;5028313;28;20454;-75
2021/11/03 10:35:35;;;;;;;201.43;59.28;;;;;;;7.68;76.79;99975.19;5064572;28;20076;-74
2021/11/03 10:38:13;;;;;;;184.05;60.53;;;;;;;7.77;76.61;99975.41;5070162;28;20098;-74
2021/11/03 10:41:05;;;;;;;169.52;58.53;;;;;;;7.84;76.49;99975.91;5087356;28;20036;-73
2021/11/03 10:43:39;;;;;;;160.25;55.22;;;;;;;7.74;76.52;99959.63;5066483;28;20040;-74
2021/11/03 10:46:22;;;;;;;160.52;56.53;;;;;;;7.80;76.66;99966.69;5071153;28;20049;-86
2021/11/03 10:49:06;;;;;;;165.52;58.45;;;;;;;7.80;76.96;99966.69;5071060;28;20041;-81
2021/11/03 10:51:38;;;;;;;172.57;60.45;;;;;;;7.72;77.44;99965.38;5038313;28;20051;-74
2021/11/03 10:54:15;;;;;;;178.40;58.25;;;;;;;7.75;77.36;99953.94;5070531;28;20041;-73
2021/11/03 10:56:55;;;;;;;164.93;56.45;;;;;;;7.84;76.85;99961.50;5061080;28;20048;-80
2021/11/03 10:59:29;;;;;;;171.00;56.97;;;;;;;7.86;76.90;99962.03;5070715;28;20052;-74
2021/11/03 11:02:20;;;;;;;154.55;58.17;;;;;;;7.91;76.88;99956.56;5072066;28;20043;-74
2021/11/03 11:04:48;;;;;;;176.48;56.35;;;;;;;7.89;76.88;99947.88;5074559;28;20123;-73
2021/11/03 11:07:33;;;;;;;152.77;52.42;;;;;;;7.92;76.93;99948.13;5073883;28;20044;-75
2021/11/03 11:10:18;;;;;;;164.43;54.03;;;;;;;7.89;76.64;99945.97;5062771;28;20456;-75
2021/11/03 11:12:47;;;;;;;166.85;56.88;;;;;;;7.99;76.42;99954.09;5072668;28;20067;-74
2021/11/03 11:15:14;;;;;;;173.35;58.22;;;;;;;7.93;76.49;99948.94;5073801;28;20040;-74
2021/11/03 11:17:44;;;;;;;147.07;51.73;;;;;;;7.83;76.97;99954.44;5074443;28;20041;-77
2021/11/03 11:20:35;;;;;;;145.07;54.65;;;;;;;7.87;76.90;99950.88;5074181;28;20039;-75
2021/11/03 11:23:27;;;;;;;140.10;49.05;;;;;;;7.78;76.92;99938.94;5073862;28;20048;-78
2021/11/03 11:26:05;;;;;;;121.07;45.22;;;;;;;7.88;77.12;99940.78;5070811;28;20028;-75
2021/11/03 11:28:48;;;;;;;112.10;41.70;;;;;;;7.80;77.32;99947.63;5073512;28;20048;-77
2021/11/03 11:31:24;;;;;;;144.00;52.92;;;;;;;7.91;77.40;99945.69;5072402;28;20178;-76